createdAt,value
2023-02-22T00:01:51.553Z,5.75
2023-02-22T00:04:41.884Z,5.79
2023-02-22T00:07:31.580Z,5.79
2023-02-22T00:10:21.226Z,5.74
2023-02-22T00:13:13.435Z,5.74
2023-02-22T00:16:03.000Z,5.74
2023-02-22T00:18:54.538Z,5.71
2023-02-22T00:21:44.997Z,5.70
2023-02-22T00:24:36.394Z,5.69
2023-02-22T00:27:25.609Z,5.67
2023-02-22T00:30:19.302Z,5.70
2023-02-22T00:33:08.629Z,5.68
2023-02-22T00:35:59.160Z,5.68
2023-02-22T00:38:49.095Z,5.65
2023-02-22T00:41:38.473Z,5.64
2023-02-22T00:44:27.881Z,5.67
2023-02-22T00:47:16.667Z,5.64
2023-02-22T00:50:05.995Z,5.66
2023-02-22T00:52:57.778Z,5.66
2023-02-22T00:55:47.228Z,5.66
2023-02-22T00:58:36.351Z,5.66
2023-02-22T01:01:25.367Z,5.66
2023-02-22T01:04:15.356Z,5.63
2023-02-22T01:07:05.187Z,5.63
2023-02-22T01:09:56.061Z,5.65
2023-02-22T01:12:45.363Z,5.65
2023-02-22T01:15:35.220Z,5.68
2023-02-22T01:18:24.179Z,5.69
2023-02-22T01:21:13.254Z,5.55
2023-02-22T01:24:04.216Z,5.28
2023-02-22T01:26:54.814Z,5.26
2023-02-22T01:29:44.038Z,5.27
2023-02-22T01:32:33.857Z,5.23
2023-02-22T01:35:25.094Z,5.21
2023-02-22T01:38:14.554Z,5.05
2023-02-22T01:41:04.026Z,4.97
2023-02-22T01:43:56.227Z,4.97
2023-02-22T01:46:45.700Z,4.96
2023-02-22T01:49:37.506Z,4.26
2023-02-22T01:52:27.911Z,3.72
2023-02-22T01:55:17.889Z,3.86
2023-02-22T01:58:09.198Z,4.03
2023-02-22T02:01:01.332Z,4.20
2023-02-22T02:03:52.166Z,4.31
2023-02-22T02:06:42.550Z,4.36
2023-02-22T02:09:38.156Z,4.39
2023-02-22T02:12:30.317Z,4.39
2023-02-22T02:15:23.770Z,4.37
2023-02-22T02:18:15.434Z,4.34
2023-02-22T02:21:41.277Z,4.26
2023-02-22T02:24:57.744Z,4.32
2023-02-22T02:28:03.848Z,4.23
2023-02-22T02:31:10.657Z,3.79
2023-02-22T02:34:04.760Z,3.43
2023-02-22T02:36:59.499Z,3.22
2023-02-22T02:39:53.172Z,2.99
2023-02-22T02:42:46.130Z,2.66
2023-02-22T02:45:42.513Z,2.83
2023-02-22T02:48:33.232Z,3.08
2023-02-22T02:51:24.841Z,3.31
2023-02-22T02:54:14.822Z,3.52
2023-02-22T02:57:04.652Z,3.62
2023-02-22T02:59:54.104Z,3.68
2023-02-22T03:02:51.630Z,3.74
2023-02-22T03:05:55.880Z,3.61
2023-02-22T03:08:51.996Z,3.42
2023-02-22T03:11:48.724Z,3.50
2023-02-22T03:14:42.478Z,3.55
2023-02-22T03:17:41.703Z,3.65
2023-02-22T03:20:32.746Z,3.67
2023-02-22T03:23:27.343Z,3.68
2023-02-22T03:26:24.225Z,3.65
2023-02-22T03:29:19.618Z,3.67
2023-02-22T03:32:11.690Z,3.74
2023-02-22T03:35:06.582Z,3.72
2023-02-22T03:38:00.554Z,3.63
2023-02-22T03:40:52.554Z,3.60
2023-02-22T03:43:45.569Z,3.60
2023-02-22T03:46:38.053Z,3.56
2023-02-22T03:49:35.238Z,3.63
2023-02-22T03:52:26.388Z,3.36
2023-02-22T03:55:18.265Z,3.42
2023-02-22T03:58:11.018Z,3.47
2023-02-22T04:01:02.326Z,3.49
2023-02-22T04:03:52.113Z,3.42
2023-02-22T04:06:41.482Z,3.48
2023-02-22T04:09:31.503Z,3.51
2023-02-22T04:12:21.159Z,3.56
2023-02-22T04:15:22.043Z,3.49
2023-02-22T04:18:17.323Z,3.48
2023-02-22T04:21:09.330Z,3.47
2023-02-22T04:24:03.490Z,3.33
2023-02-22T04:26:55.373Z,2.91
2023-02-22T04:29:45.754Z,2.60
2023-02-22T04:32:35.922Z,2.25
2023-02-22T04:35:27.669Z,2.20
2023-02-22T04:38:17.090Z,2.15
2023-02-22T04:41:06.918Z,2.23
2023-02-22T04:49:17.714Z,2.14
2023-02-22T04:52:10.538Z,2.43
2023-02-22T04:55:01.489Z,2.61
2023-02-22T04:57:50.541Z,2.78
2023-02-22T05:00:42.185Z,2.88
2023-02-22T05:03:31.971Z,2.87
2023-02-22T05:06:21.245Z,2.91
2023-02-22T05:09:12.118Z,3.01
2023-02-22T05:12:01.285Z,3.03
2023-02-22T05:14:50.683Z,3.04
2023-02-22T05:17:39.801Z,3.02
2023-02-22T05:20:31.791Z,3.07
2023-02-22T05:23:21.371Z,3.11
2023-02-22T05:26:12.024Z,3.17
2023-02-22T05:29:01.495Z,3.19
2023-02-22T05:31:50.980Z,3.07
2023-02-22T05:34:40.281Z,2.96
2023-02-22T05:37:29.233Z,2.81
2023-02-22T05:40:20.070Z,2.91
2023-02-22T05:43:11.627Z,3.05
2023-02-22T05:46:00.779Z,3.00
2023-02-22T05:48:50.061Z,3.03
2023-02-22T05:51:39.430Z,2.86
2023-02-22T05:54:29.314Z,2.90
2023-02-22T05:57:18.718Z,2.95
2023-02-22T06:00:11.566Z,2.98
2023-02-22T06:03:05.468Z,2.92
2023-02-22T06:05:54.650Z,2.65
2023-02-22T06:08:44.817Z,2.69
2023-02-22T06:11:33.993Z,2.76
2023-02-22T06:14:24.649Z,2.81
2023-02-22T06:17:18.872Z,2.89
2023-02-22T06:20:10.320Z,2.93
2023-02-22T06:23:00.582Z,2.94
2023-02-22T06:25:50.375Z,2.96
2023-02-22T06:28:39.755Z,2.70
2023-02-22T06:31:29.326Z,2.66
2023-02-22T06:34:23.202Z,2.69
2023-02-22T06:37:13.376Z,2.77
2023-02-22T06:40:05.523Z,2.82
2023-02-22T06:42:55.141Z,2.78
2023-02-22T06:45:44.661Z,2.83
2023-02-22T06:48:34.158Z,2.82
2023-02-22T06:51:24.728Z,2.75
2023-02-22T06:54:14.146Z,2.85
2023-02-22T06:57:04.328Z,2.90
2023-02-22T06:59:54.113Z,2.88
2023-02-22T07:02:44.202Z,2.88
2023-02-22T07:05:33.198Z,2.90
2023-02-22T07:08:23.982Z,2.90
2023-02-22T07:11:13.234Z,2.97
2023-02-22T07:14:02.436Z,3.02
2023-02-22T07:16:51.762Z,3.05
2023-02-22T07:19:40.644Z,3.08
2023-02-22T07:22:30.819Z,3.15
2023-02-22T07:25:21.542Z,3.16
2023-02-22T07:28:11.833Z,3.20
2023-02-22T07:31:01.546Z,3.28
2023-02-22T07:33:51.603Z,3.38
2023-02-22T07:36:40.417Z,3.43
2023-02-22T07:39:29.418Z,3.47
2023-02-22T07:42:20.017Z,3.52
2023-02-22T07:45:09.402Z,3.59
2023-02-22T07:47:58.803Z,3.65
2023-02-22T07:50:48.238Z,3.68
2023-02-22T07:53:37.076Z,3.73
2023-02-22T07:56:26.293Z,3.83
2023-02-22T07:59:16.903Z,3.85
2023-02-22T08:02:06.443Z,3.93
2023-02-22T08:04:55.914Z,3.98
2023-02-22T08:07:45.317Z,4.00
2023-02-22T08:10:36.324Z,4.13
2023-02-22T08:13:26.043Z,4.10
2023-02-22T08:16:16.525Z,4.24
2023-02-22T08:19:05.654Z,4.15
2023-02-22T08:21:55.518Z,4.36
2023-02-22T08:24:44.989Z,4.44
2023-02-22T08:27:34.600Z,4.55
2023-02-22T08:30:25.080Z,4.53
2023-02-22T08:33:20.062Z,4.55
2023-02-22T08:36:10.504Z,4.70
2023-02-22T08:38:59.918Z,4.72
2023-02-22T08:41:49.353Z,4.84
2023-02-22T08:44:39.097Z,5.02
2023-02-22T08:47:28.112Z,5.12
2023-02-22T08:50:21.020Z,5.13
2023-02-22T08:53:11.636Z,5.26
2023-02-22T08:56:00.756Z,5.38
2023-02-22T08:58:49.713Z,5.50
2023-02-22T09:01:39.014Z,5.60
2023-02-22T09:04:28.608Z,5.68
2023-02-22T09:07:19.496Z,5.70
2023-02-22T09:10:09.046Z,5.97
2023-02-22T09:13:00.750Z,6.15
2023-02-22T09:15:49.852Z,6.31
2023-02-22T09:18:44.065Z,6.37
2023-02-22T09:21:34.184Z,6.57
2023-02-22T09:24:25.031Z,6.67
2023-02-22T09:27:13.922Z,6.67
2023-02-22T09:30:03.535Z,6.86
2023-02-22T09:32:54.316Z,7.01
2023-02-22T09:35:46.661Z,7.14
2023-02-22T09:38:35.705Z,7.28
2023-02-22T09:41:34.593Z,7.34
2023-02-22T09:44:36.301Z,7.45
2023-02-22T09:47:32.671Z,7.60
2023-02-22T09:50:24.107Z,7.76
2023-02-22T09:53:22.024Z,7.88
2023-02-22T09:56:12.993Z,7.98
2023-02-22T09:59:05.712Z,8.04
2023-02-22T10:02:00.469Z,8.07
2023-02-22T10:04:52.891Z,8.08
2023-02-22T10:07:45.376Z,8.14
2023-02-22T10:10:36.916Z,8.23
2023-02-22T10:13:32.253Z,8.32
2023-02-22T10:16:28.225Z,8.42
2023-02-22T10:19:26.603Z,8.51
2023-02-22T10:22:24.775Z,8.63
2023-02-22T10:25:18.064Z,8.68
2023-02-22T10:28:13.710Z,8.80
2023-02-22T10:31:05.628Z,8.91
2023-02-22T10:33:59.761Z,8.97
2023-02-22T10:36:51.161Z,9.14
2023-02-22T10:39:41.470Z,9.22
2023-02-22T10:42:31.144Z,9.34
2023-02-22T10:45:23.664Z,9.50
2023-02-22T10:48:15.127Z,9.56
2023-02-22T10:51:08.663Z,9.67
2023-02-22T10:54:04.105Z,9.80
2023-02-22T10:56:55.646Z,9.95
2023-02-22T10:59:45.356Z,10.17
2023-02-22T11:02:35.714Z,10.40
2023-02-22T11:05:30.213Z,10.57
2023-02-22T11:08:29.127Z,10.56
2023-02-22T11:11:25.231Z,10.60
2023-02-22T11:14:16.408Z,10.63
2023-02-22T11:17:09.103Z,10.83
2023-02-22T11:19:58.473Z,10.93
2023-02-22T11:22:47.532Z,11.00
2023-02-22T11:25:39.283Z,11.16
2023-02-22T11:28:32.893Z,11.47
2023-02-22T11:31:23.540Z,11.45
2023-02-22T11:34:28.694Z,11.60
2023-02-22T11:37:22.362Z,11.69
2023-02-22T11:40:18.443Z,11.81
2023-02-22T11:43:17.129Z,11.90
2023-02-22T11:46:08.574Z,11.89
2023-02-22T11:49:04.715Z,12.06
2023-02-22T11:52:11.206Z,12.22
2023-02-22T11:55:29.743Z,12.34
2023-02-22T11:58:40.012Z,12.36
2023-02-22T12:01:34.844Z,12.48
2023-02-22T12:04:45.419Z,12.35
2023-02-22T12:07:43.381Z,12.54
2023-02-22T12:10:44.242Z,12.47
2023-02-22T12:13:43.809Z,12.53
2023-02-22T12:16:39.392Z,12.75
2023-02-22T12:19:33.185Z,12.74
2023-02-22T12:22:24.513Z,12.76
2023-02-22T12:25:20.351Z,12.79
2023-02-22T12:28:24.374Z,12.70
2023-02-22T12:31:23.144Z,12.76
2023-02-22T12:34:17.409Z,12.83
2023-02-22T12:37:13.435Z,12.82
2023-02-22T12:40:09.284Z,12.83
2023-02-22T12:43:01.105Z,12.91
2023-02-22T12:45:54.673Z,12.87
2023-02-22T12:48:48.796Z,13.04
2023-02-22T12:51:44.510Z,13.14
2023-02-22T12:54:43.018Z,13.26
2023-02-22T12:57:39.070Z,13.33
2023-02-22T13:00:29.855Z,13.27
2023-02-22T13:03:29.057Z,13.36
2023-02-22T13:06:32.153Z,13.42
2023-02-22T13:09:36.154Z,13.47
2023-02-22T13:12:28.159Z,13.51
2023-02-22T13:15:20.641Z,13.68
2023-02-22T13:18:15.983Z,13.56
2023-02-22T13:21:06.823Z,13.48
2023-02-22T13:24:04.896Z,13.55
2023-02-22T13:26:56.908Z,13.68
2023-02-22T13:29:47.842Z,13.81
2023-02-22T13:32:47.942Z,13.79
2023-02-22T13:36:01.250Z,13.79
2023-02-22T13:39:28.008Z,13.73
2023-02-22T13:42:39.663Z,13.75
2023-02-22T13:45:51.802Z,13.79
2023-02-22T13:48:58.399Z,13.77
2023-02-22T13:51:50.664Z,13.90
2023-02-22T13:54:45.075Z,13.94
2023-02-22T13:57:39.765Z,13.99
2023-02-22T14:00:44.488Z,14.08
2023-02-22T14:03:40.978Z,14.07
2023-02-22T14:06:38.230Z,13.96
2023-02-22T14:09:47.022Z,13.98
2023-02-22T14:12:51.252Z,14.08
2023-02-22T14:16:20.696Z,14.02
2023-02-22T14:19:16.077Z,14.11
2023-02-22T14:22:08.788Z,14.23
2023-02-22T14:24:59.025Z,14.13
2023-02-22T14:27:47.523Z,14.24
2023-02-22T14:30:38.157Z,14.20
2023-02-22T14:33:56.455Z,14.17
2023-02-22T14:36:52.040Z,14.16
2023-02-22T14:39:43.529Z,14.20
2023-02-22T14:42:35.921Z,14.15
2023-02-22T14:45:27.396Z,14.24
2023-02-22T14:48:25.081Z,14.30
2023-02-22T14:51:21.924Z,14.36
2023-02-22T14:54:16.193Z,14.43
2023-02-22T14:57:15.160Z,14.51
2023-02-22T15:00:19.834Z,14.52
2023-02-22T15:03:19.049Z,14.62
2023-02-22T15:06:15.007Z,14.55
2023-02-22T15:09:09.985Z,14.53
2023-02-22T15:12:14.043Z,14.50
2023-02-22T15:15:17.364Z,14.49
2023-02-22T15:18:12.684Z,14.51
2023-02-22T15:21:07.090Z,14.49
2023-02-22T15:23:57.375Z,14.55
2023-02-22T15:27:00.339Z,14.50
2023-02-22T15:29:50.600Z,14.53
2023-02-22T15:32:57.134Z,14.47
2023-02-22T15:35:55.701Z,14.46
2023-02-22T15:38:49.248Z,14.48
2023-02-22T15:41:38.029Z,14.45
2023-02-22T15:44:27.630Z,14.52
2023-02-22T15:47:19.598Z,14.52
2023-02-22T15:50:25.870Z,14.58
2023-02-22T15:53:27.427Z,14.57
2023-02-22T15:56:17.919Z,14.50
2023-02-22T15:59:14.992Z,14.54
2023-02-22T16:02:04.106Z,14.51
2023-02-22T16:04:59.937Z,14.48
2023-02-22T16:07:51.040Z,14.42
2023-02-22T16:10:41.341Z,14.42
2023-02-22T16:13:33.054Z,14.38
2023-02-22T16:16:24.421Z,14.37
2023-02-22T16:19:34.581Z,14.35
2023-02-22T16:22:29.219Z,14.32
2023-02-22T16:25:30.113Z,14.17
2023-02-22T16:28:34.056Z,14.15
2023-02-22T16:31:25.486Z,14.10
2023-02-22T16:34:15.946Z,14.03
2023-02-22T16:37:04.586Z,14.00
2023-02-22T16:39:53.344Z,13.95
2023-02-22T16:42:43.244Z,13.88
2023-02-22T16:45:31.739Z,13.80
2023-02-22T16:48:22.354Z,13.73
2023-02-22T16:51:14.961Z,13.66
2023-02-22T16:54:04.126Z,13.60
2023-02-22T16:57:05.136Z,13.52
2023-02-22T16:59:57.380Z,13.43
2023-02-22T17:02:46.994Z,13.35
2023-02-22T17:05:36.846Z,13.20
2023-02-22T17:08:25.808Z,13.13
2023-02-22T17:11:15.808Z,13.06
2023-02-22T17:14:04.806Z,13.03
2023-02-22T17:16:54.820Z,12.97
2023-02-22T17:19:43.554Z,12.94
2023-02-22T17:22:32.312Z,12.88
2023-02-22T17:25:24.286Z,12.83
2023-02-22T17:28:13.164Z,12.75
2023-02-22T17:31:02.498Z,12.65
2023-02-22T17:33:52.620Z,12.56
2023-02-22T17:36:42.178Z,12.47
2023-02-22T17:39:30.913Z,12.44
2023-02-22T17:42:19.709Z,12.37
2023-02-22T17:45:09.469Z,12.32
2023-02-22T17:47:59.643Z,12.24
2023-02-22T17:50:50.517Z,12.18
2023-02-22T17:53:39.920Z,12.11
2023-02-22T17:56:28.501Z,11.69
2023-02-22T17:59:17.139Z,11.60
2023-02-22T18:02:06.005Z,11.61
2023-02-22T18:04:54.850Z,11.60
2023-02-22T18:07:45.132Z,11.59
2023-02-22T18:10:33.735Z,11.57
2023-02-22T18:13:22.846Z,11.52
2023-02-22T18:16:11.901Z,11.46
2023-02-22T18:19:01.673Z,11.38
2023-02-22T18:21:50.244Z,11.03
2023-02-22T18:24:40.119Z,10.98
2023-02-22T18:27:30.239Z,10.97
2023-02-22T18:30:19.427Z,10.98
2023-02-22T18:33:11.337Z,10.99
2023-02-22T18:36:00.567Z,10.90
2023-02-22T18:38:50.245Z,10.39
2023-02-22T18:41:40.550Z,10.14
2023-02-22T18:44:29.622Z,10.11
2023-02-22T18:47:18.748Z,10.25
2023-02-22T18:50:08.632Z,10.32
2023-02-22T18:52:57.624Z,10.35
2023-02-22T18:55:46.398Z,10.39
2023-02-22T18:58:38.691Z,10.40
2023-02-22T19:01:27.871Z,10.39
2023-02-22T19:04:18.401Z,10.36
2023-02-22T19:07:07.232Z,10.33
2023-02-22T19:09:56.218Z,10.31
2023-02-22T19:12:45.510Z,10.27
2023-02-22T19:15:36.009Z,10.22
2023-02-22T19:18:25.143Z,10.16
2023-02-22T19:21:15.119Z,10.11
2023-02-22T19:24:04.616Z,10.08
2023-02-22T19:26:57.519Z,10.03
2023-02-22T19:29:47.170Z,10.00
2023-02-22T19:32:40.770Z,9.96
2023-02-22T19:35:29.582Z,9.91
2023-02-22T19:38:18.149Z,9.84
2023-02-22T19:41:12.662Z,9.78
2023-02-22T19:44:03.312Z,9.53
2023-02-22T19:46:55.274Z,8.98
2023-02-22T19:49:45.107Z,8.48
2023-02-22T19:52:35.623Z,8.19
2023-02-22T19:55:24.186Z,8.16
2023-02-22T19:58:15.390Z,8.38
2023-02-22T20:01:05.194Z,8.59
2023-02-22T20:03:55.802Z,8.71
2023-02-22T20:06:47.199Z,8.79
2023-02-22T20:09:39.680Z,8.82
2023-02-22T20:12:28.957Z,8.72
2023-02-22T20:15:17.999Z,8.53
2023-02-22T20:18:07.057Z,8.18
2023-02-22T20:20:55.823Z,7.94
2023-02-22T20:23:45.781Z,7.95
2023-02-22T20:26:36.799Z,7.84
2023-02-22T20:29:29.806Z,7.57
2023-02-22T20:32:19.418Z,7.35
2023-02-22T20:35:09.473Z,7.35
2023-02-22T20:37:59.476Z,7.19
2023-02-22T20:40:49.878Z,7.22
2023-02-22T20:43:39.795Z,7.46
2023-02-22T20:46:31.815Z,7.67
2023-02-22T20:49:21.610Z,7.84
2023-02-22T20:52:10.924Z,7.95
2023-02-22T20:54:59.456Z,8.03
2023-02-22T20:57:49.786Z,7.86
2023-02-22T21:00:39.125Z,7.86
2023-02-22T21:03:28.564Z,7.91
2023-02-22T21:06:21.357Z,7.97
2023-02-22T21:09:14.184Z,8.02
2023-02-22T21:12:03.259Z,8.04
2023-02-22T21:14:53.606Z,8.05
2023-02-22T21:17:47.696Z,8.07
2023-02-22T21:20:38.826Z,8.08
2023-02-22T21:23:27.855Z,8.04
2023-02-22T21:26:19.290Z,7.64
2023-02-22T21:29:08.680Z,7.67
2023-02-22T21:32:00.070Z,7.57
2023-02-22T21:34:48.756Z,7.63
2023-02-22T21:37:37.491Z,7.73
2023-02-22T21:40:27.583Z,7.77
2023-02-22T21:43:16.768Z,7.49
2023-02-22T21:46:06.531Z,7.14
2023-02-22T21:48:58.995Z,7.31
2023-02-22T21:51:48.195Z,7.19
2023-02-22T21:54:37.056Z,6.96
2023-02-22T21:57:26.336Z,6.90
2023-02-22T22:00:17.756Z,7.05
2023-02-22T22:03:11.718Z,7.17
2023-02-22T22:06:02.128Z,7.28
2023-02-22T22:08:53.873Z,7.05
2023-02-22T22:11:42.745Z,7.13
2023-02-22T22:14:32.342Z,7.17
2023-02-22T22:17:22.112Z,7.18
2023-02-22T22:20:11.925Z,7.24
2023-02-22T22:23:02.034Z,7.29
2023-02-22T22:25:51.722Z,6.94
2023-02-22T22:28:41.499Z,7.08
2023-02-22T22:31:30.548Z,7.05
2023-02-22T22:34:19.722Z,6.59
2023-02-22T22:37:09.443Z,6.74
2023-02-22T22:39:59.951Z,6.73
2023-02-22T22:42:49.192Z,6.75
2023-02-22T22:45:39.383Z,6.53
2023-02-22T22:48:29.367Z,6.56
2023-02-22T22:51:20.772Z,6.69
2023-02-22T22:54:11.297Z,6.57
2023-02-22T22:57:01.725Z,6.50
2023-02-22T22:59:50.723Z,6.49
2023-02-22T23:02:40.753Z,6.40
2023-02-22T23:05:29.749Z,6.05
2023-02-22T23:08:20.877Z,5.90
2023-02-22T23:11:10.391Z,5.88
2023-02-22T23:14:03.522Z,6.08
2023-02-22T23:16:55.496Z,6.14
2023-02-22T23:19:46.041Z,6.20
2023-02-22T23:22:34.967Z,6.12
2023-02-22T23:25:24.349Z,5.95
2023-02-22T23:28:15.888Z,5.96
2023-02-22T23:31:09.583Z,6.11
2023-02-22T23:34:00.144Z,6.14
2023-02-22T23:36:48.836Z,6.22
2023-02-22T23:39:37.914Z,6.33
2023-02-22T23:42:27.520Z,6.41
2023-02-22T23:45:22.937Z,6.38
2023-02-22T23:48:13.724Z,6.45
2023-02-22T23:51:09.331Z,6.41
2023-02-22T23:53:58.536Z,6.25
2023-02-22T23:56:56.595Z,6.14
2023-02-22T23:59:46.002Z,6.06
